Startpagina
METAR-TAF:

METAR-TAF

Vliegvelden :

Marham, Engeland

breedte: 52-39N, lengte: 000-34E, hoogte: 23 m

Actueel weer

Dit bericht is 58 minuten geleden gemaakt, om 20:50 UTC
Wind 5 kt uit het zuidoosten
Temperatuur 3°C
Vochtigheid 93%
Druk 1008 hPa
Zicht 10 km of meer
Weinig wolken op 3000 ft, Cumulonimbus.
buien in de omgeving

METAR: EGYM 052050Z 14005KT 9999 VCSH FEW030CB 03/02 Q1008 TEMPO 7000 SHRA RMK BLU TEMPO WHT

Tijdstip: 22:48 (21:48 UTC)

Verwachting

Dit bericht is 43 minuten geleden gemaakt, om 21:05 UTC
Verwachting geldig van 05 om 21 UTC tot 05 om 24 UTC
Wind 7 kt uit het zuiden
Zicht 10 km of meer
Weinig wolken op 3500 ft
Tijdelijke
van 05 om 21 UTC tot 05 om 24 UTC
Zicht: 6000 m
Gebroken wolken op 3000 ft, Stapelwolken.
regenbuien
Kans 30% :
Tijdelijke
van 05 om 21 UTC tot 05 om 22 UTC
Verspreide wolken op 2000 ft, Cumulonimbus.
onweer, regen

TAF: EGYM 052105Z 0521/0524 18007KT 9999 FEW035 TEMPO 0521/0524 6000 SHRA BKN030TCU PROB30 TEMPO 0521/0522 TSRA SCT020CB

Waarnemingen en weersverwachtingen van meer dan 4000 vliegvelden (METAR en TAF).

De beschikbare stations zijn de gele en rode punten op de kaart.

Ga met uw muis naar het station om de naam te zien.

Klik dan om waarnemingen en weersverwachtingen te zien.

kaart wijzigen: klik op de groene knoppen met een zwart kruis om in te zoomen, op de groene knop met een streepje om uit te zoomen of op de groene pijlen voor aangrenzende kaarten.


METAR-TAF: